Latest Weather Observations for Horsley Park

IDN60801

Issued at 11:03 pm EST Friday 1 July 2016 (issued every 30 minutes, with the page automatically refreshed every 10 minutes)

About weather observations | Map of weather stations | Latest weather observations for NSW | Other Formats
Station Details ID: 067119 Name: HORSLEY PARK EQUESTRIAN CENTRE AWS Lat: -33.85 Lon: 150.86 Height: 100.0 m
Data from the previous 72 hours. | See also: Recent months at Horsley Park
Date/Time
EST
Temp
°C
App
Temp
°C
Dew
Point
°C
Rel
Hum
%
Delta-T
°C
Wind Press
QNH
hPa
Press
MSL
hPa
Rain since
9am
mm
Dir  Spd
km/h
Gust
km/h
Spd
kts
Gust
kts
01/11:00pm 8.0 5.2 3.3 72 2.0 WSW 7 9 4 5 - - 0.0
01/10:30pm 7.2 4.8 2.3 71 2.0 WSW 4 6 2 3 - - 0.0
01/10:00pm 8.6 5.9 2.6 66 2.5 W 6 7 3 4 - - 0.0
01/09:30pm 9.0 6.3 2.6 64 2.7 WSW 6 9 3 5 - - 0.0
01/09:00pm 9.7 6.8 2.8 62 3.0 WSW 7 11 4 6 - - 0.0
01/08:30pm 9.3 6.6 2.6 63 2.9 SW 6 9 3 5 - - 0.0
01/08:00pm 9.4 6.7 2.5 62 2.9 SW 6 9 3 5 - - 0.0
01/07:30pm 9.7 7.4 2.6 61 3.0 WSW 4 6 2 3 - - 0.0
01/07:00pm 10.2 7.8 2.1 57 3.4 W 4 7 2 4 - - 0.0
01/06:30pm 11.5 8.5 2.3 53 4.0 WSW 7 13 4 7 - - 0.0
01/06:00pm 11.7 8.7 2.2 52 4.1 WSW 7 13 4 7 - - 0.0
01/05:30pm 12.3 9.3 1.9 49 4.5 WSW 7 13 4 7 - - 0.0
01/05:00pm 13.2 10.2 1.8 46 4.9 W 7 13 4 7 - - 0.0
01/04:30pm 14.4 11.0 1.7 42 5.6 WSW 9 15 5 8 - - 0.0
01/04:00pm 14.7 10.4 1.3 40 5.8 WSW 13 24 7 13 - - 0.0
01/03:30pm 15.2 11.4 1.7 40 6.0 WSW 11 19 6 10 - - 0.0
01/03:00pm 15.3 10.6 1.1 38 6.2 SW 15 22 8 12 - - 0.0
01/02:30pm 15.9 11.2 1.2 37 6.5 SW 15 32 8 17 - - 0.0
01/02:00pm 15.4 10.4 1.5 39 6.1 WSW 17 28 9 15 - - 0.0
01/01:30pm 15.2 9.8 1.0 38 6.2 WSW 19 32 10 17 - - 0.0
01/01:00pm 14.9 9.4 1.8 41 5.8 WSW 20 33 11 18 - - 0.0
01/12:30pm 14.9 9.7 2.4 43 5.6 WSW 19 26 10 14 - - 0.0
01/12:00pm 14.7 10.1 1.6 41 5.7 WSW 15 28 8 15 - - 0.0
01/11:30am 13.9 10.6 2.2 45 5.2 W 9 19 5 10 - - 0.0
01/11:00am 13.3 9.5 1.6 45 5.1 W 11 19 6 10 - - 0.0
01/10:30am 13.4 9.5 1.4 44 5.2 NW 11 17 6 9 - - 0.0
01/10:00am 12.5 8.6 1.2 46 4.8 NW 11 19 6 10 - - 0.0
01/09:30am 12.3 8.9 1.6 48 4.6 WNW 9 15 5 8 - - 0.0
01/09:00am 11.4 8.0 1.9 52 4.1 NW 9 17 5 9 - - 0.0
01/08:30am 10.0 7.3 2.6 60 3.2 NNW 6 9 3 5 - - 0.0
01/08:00am 7.5 5.2 2.8 72 2.0 NW 4 7 2 4 - - 0.0
01/07:30am 6.3 4.1 3.3 81 1.3 NW 4 6 2 3 - - 0.0
01/07:00am 4.9 3.5 3.4 90 0.6 CALM 0 0 0 0 - - 0.0
01/06:30am 4.7 3.1 2.4 85 0.9 CALM 0 0 0 0 - - 0.0
01/06:00am 5.1 3.2 2.6 84 1.0 ENE 2 4 1 2 - - 0.0
01/05:30am 6.8 5.0 3.6 80 1.4 WNW 2 6 1 3 - - 0.0
01/05:00am 7.0 5.1 3.1 76 1.6 WNW 2 6 1 3 - - 0.0
01/04:30am 7.8 5.6 3.5 74 1.8 WNW 4 6 2 3 - - 0.0
01/04:00am 9.1 6.4 3.7 69 2.4 W 7 13 4 7 - - 0.0
01/03:30am 9.7 6.3 3.9 67 2.6 NW 11 15 6 8 - - 0.0
01/03:00am 10.3 6.5 3.8 64 2.9 NNW 13 20 7 11 - - 0.0
01/02:30am 10.5 7.1 4.0 64 2.9 N 11 15 6 8 - - 0.0
01/02:00am 10.7 6.9 3.7 62 3.1 N 13 19 7 10 - - 0.0
01/01:30am 10.9 6.7 3.9 62 3.1 N 15 24 8 13 - - 0.0
01/01:00am 11.2 6.7 4.2 62 3.1 N 17 26 9 14 - - 0.0
01/12:30am 9.7 6.5 2.8 62 3.0 NNE 9 19 5 10 - - 0.0
01/12:00am 9.4 6.5 2.7 63 2.9 NNW 7 17 4 9 - - 0.0
 
Date/Time
EST
Temp
°C
App
Temp
°C
Dew
Point
°C
Rel
Hum
%
Delta-T
°C
Wind Press
QNH
hPa
Press
MSL
hPa
Rain since
9am
mm
Dir  Spd
km/h
Gust
km/h
Spd
kts
Gust
kts
30/11:30pm 9.7 6.7 2.3 60 3.1 N 7 17 4 9 - - 0.0
30/11:00pm 7.0 4.5 1.5 68 2.2 N 4 7 2 4 - - 0.0
30/10:30pm 9.5 7.4 1.9 59 3.2 N 2 6 1 3 - - 0.0
30/10:00pm 10.1 7.1 2.2 58 3.4 NNW 7 13 4 7 - - 0.0
30/09:30pm 10.6 7.3 2.4 57 3.5 NNW 9 17 5 9 - - 0.0
30/09:00pm 11.0 7.3 2.3 55 3.7 NNW 11 17 6 9 - - 0.0
30/08:30pm 11.1 7.4 2.2 54 3.8 NNW 11 20 6 11 - - 0.0
30/08:00pm 11.5 7.7 2.0 52 4.1 NNW 11 22 6 12 - - 0.0
30/07:30pm 11.6 7.8 1.5 50 4.3 N 11 20 6 11 - - 0.0
30/07:00pm 12.0 8.1 1.3 48 4.5 NNW 11 22 6 12 - - 0.0
30/06:30pm 12.3 8.9 1.6 48 4.6 NNW 9 13 5 7 - - 0.0
30/06:00pm 10.2 8.3 2.6 59 3.3 N 2 9 1 5 - - 0.0
30/05:30pm 10.9 8.9 2.5 56 3.6 NW 2 4 1 2 - - 0.0
30/05:00pm 11.5 9.2 2.5 54 3.9 NW 4 6 2 3 - - 0.0
30/04:30pm 12.4 10.4 2.3 50 4.4 W 2 4 1 2 - - 0.0
30/04:00pm 11.8 10.0 3.3 56 3.8 W 2 6 1 3 - - 0.0
30/03:30pm 12.3 10.1 3.3 54 4.0 W 4 6 2 3 - - 0.0
30/03:00pm 13.3 10.3 0.7 42 5.3 WNW 6 7 3 4 - - 0.0
30/02:30pm 13.7 10.6 0.4 40 5.6 N 6 13 3 7 - - 0.0
30/02:00pm 13.9 10.7 -0.5 37 6.0 NNW 6 15 3 8 - - 0.0
30/01:30pm 13.9 11.1 1.9 44 5.3 NNW 6 7 3 4 - - 0.0
30/01:00pm 13.9 11.2 3.7 50 4.6 NNW 7 11 4 6 - - 0.0
30/12:30pm 12.4 9.9 3.9 56 3.8 WNW 6 9 3 5 - - 0.0
30/12:00pm 12.4 9.9 3.6 55 3.9 NW 6 11 3 6 - - 0.0
30/11:30am 12.1 8.9 2.8 53 4.1 NNW 9 17 5 9 - - 0.0
30/11:00am 11.4 8.6 2.9 56 3.7 NNW 7 13 4 7 - - 0.0
30/10:30am 10.4 7.6 3.0 60 3.2 NNW 7 15 4 8 - - 0.0
30/10:00am 8.9 6.9 4.3 73 2.0 NW 4 7 2 4 - - 0.0
30/09:30am 7.7 6.0 4.1 78 1.6 NNW 2 6 1 3 - - 0.0
30/09:00am 6.7 5.4 4.0 83 1.2 CALM 0 2 0 1 - - 0.0
30/08:30am 5.4 4.1 3.9 90 0.6 CALM 0 2 0 1 - - 0.0
30/08:00am 3.8 2.4 3.7 99 0.0 CALM 0 0 0 0 - - 0.0
30/07:30am 1.6 -0.2 1.2 97 0.2 CALM 0 0 0 0 - - 0.0
30/07:00am 1.7 -0.1 1.1 96 0.2 CALM 0 0 0 0 - - 0.0
30/06:30am 1.8 0.0 0.9 94 0.3 CALM 0 0 0 0 - - 0.0
30/06:00am 2.5 0.0 1.6 94 0.3 NW 4 6 2 3 - - 0.0
30/05:30am 3.3 0.6 2.6 95 0.3 NW 6 7 3 4 - - 0.0
30/05:00am 3.2 0.8 2.3 94 0.4 WNW 4 6 2 3 - - 0.0
30/04:30am 3.9 1.6 3.0 94 0.4 NW 4 6 2 3 - - 0.0
30/04:00am 3.9 1.3 3.2 95 0.3 NW 6 6 3 3 - - 0.0
30/03:30am 3.4 1.5 2.8 96 0.2 NW 2 4 1 2 - - 0.0
30/03:00am 3.5 2.0 3.1 97 0.2 CALM 0 0 0 0 - - 0.0
30/02:30am 3.0 1.3 2.0 93 0.4 CALM 0 0 0 0 - - 0.0
30/02:00am 4.2 2.4 3.2 93 0.4 WNW 2 4 1 2 - - 0.0
30/01:30am 4.6 2.5 3.7 94 0.4 WNW 4 6 2 3 - - 0.0
30/01:00am 4.0 2.5 2.8 92 0.5 CALM 0 0 0 0 - - 0.0
30/12:30am 4.3 2.8 3.0 91 0.5 CALM 0 0 0 0 - - 0.0
30/12:00am 4.2 2.6 2.4 88 0.7 CALM 0 0 0 0 - - 0.0
 
Date/Time
EST
Temp
°C
App
Temp
°C
Dew
Point
°C
Rel
Hum
%
Delta-T
°C
Wind Press
QNH
hPa
Press
MSL
hPa
Rain since
9am
mm
Dir  Spd
km/h
Gust
km/h
Spd
kts
Gust
kts
29/11:30pm 5.1 3.6 3.0 86 0.9 CALM 0 0 0 0 - - 0.0
29/11:00pm 5.7 4.3 3.4 85 1.0 CALM 0 0 0 0 - - 0.0
29/10:30pm 6.7 5.2 3.1 78 1.5 CALM 0 0 0 0 - - 0.0
29/10:00pm 7.2 5.7 3.1 75 1.7 CALM 0 0 0 0 - - 0.0
29/09:30pm 8.5 7.1 3.6 71 2.1 CALM 0 0 0 0 - - 0.0
29/09:00pm 8.8 7.4 3.4 69 2.3 CALM 0 0 0 0 - - 0.0
29/08:30pm 9.0 7.6 3.4 68 2.4 CALM 0 0 0 0 - - 0.0
29/08:00pm 9.1 7.7 3.5 68 2.4 CALM 0 0 0 0 - - 0.0
29/07:30pm 9.0 7.5 3.0 66 2.6 CALM 0 0 0 0 - - 0.0
29/07:00pm 10.3 8.9 3.6 63 3.0 CALM 0 0 0 0 - - 0.0
29/06:30pm 9.4 7.9 2.9 64 2.8 CALM 0 0 0 0 - - 0.0
29/06:00pm 9.7 8.2 3.0 63 2.9 CALM 0 0 0 0 - - 0.0
29/05:30pm 10.8 9.4 3.4 60 3.3 CALM 0 0 0 0 - - 0.0
29/05:00pm 11.7 10.3 3.7 58 3.6 CALM 0 0 0 0 - - 0.0
29/04:30pm 15.1 13.2 2.6 43 5.6 ENE 2 4 1 2 - - 0.0
29/04:00pm 15.8 13.5 2.6 41 6.0 NE 4 7 2 4 - - 0.0
29/03:30pm 16.5 14.2 2.5 39 6.3 NNE 4 6 2 3 - - 0.0
29/03:00pm 18.1 16.4 2.0 34 7.3 CALM 0 2 0 1 - - 0.0
29/02:30pm 17.8 16.1 1.7 34 7.3 CALM 0 4 0 2 - - 0.0
29/02:00pm 17.4 15.4 2.2 36 6.9 NW 2 4 1 2 - - 0.0
29/01:30pm 17.1 14.8 2.7 38 6.6 NNE 4 7 2 4 - - 0.0
29/01:00pm 16.4 13.9 3.8 43 5.9 N 6 7 3 4 - - 0.0
29/12:30pm 15.8 13.8 4.5 47 5.3 WNW 4 7 2 4 - - 0.0
29/12:00pm 14.3 12.2 4.0 50 4.7 W 4 7 2 4 - - 0.0
29/11:30am 13.0 10.5 3.7 53 4.2 W 6 9 3 5 - - 0.0
29/11:00am 13.0 10.7 4.9 58 3.8 W 6 9 3 5 - - 0.0
29/10:30am 11.4 8.1 2.7 55 3.8 WNW 9 13 5 7 - - 0.0
29/10:00am 10.3 8.1 3.6 63 3.0 NW 4 6 2 3 - - 0.0
29/09:30am 8.6 6.1 4.0 73 2.0 NW 6 7 3 4 - - 0.0
29/09:00am 6.7 4.5 3.1 78 1.5 NNW 4 6 2 3 - - 0.0
29/08:30am 5.3 3.0 3.0 85 1.0 NW 4 7 2 4 - - 0.0
29/08:00am 3.5 2.1 3.4 99 0.0 CALM 0 0 0 0 - - 0.0
29/07:30am 1.5 -0.3 1.1 97 0.2 CALM 0 2 0 1 - - 0.0
29/07:00am 1.4 -0.4 1.0 97 0.2 CALM 0 0 0 0 - - 0.0
29/06:30am 1.1 -1.6 0.5 96 0.2 NW 4 6 2 3 - - 0.0
29/06:00am 1.9 0.1 1.5 97 0.2 CALM 0 0 0 0 - - 0.0
29/05:30am 1.9 0.1 1.5 97 0.2 CALM 0 0 0 0 - - 0.0
29/05:00am 1.6 -0.2 1.0 96 0.2 CALM 0 0 0 0 - - 0.0
29/04:30am 1.5 -0.4 0.8 95 0.3 CALM 0 0 0 0 - - 0.0
29/04:00am 1.7 -0.1 1.0 95 0.3 CALM 0 0 0 0 - - 0.0
29/03:30am 1.5 -0.4 0.5 93 0.4 CALM 0 0 0 0 - - 0.0
29/03:00am 2.0 0.1 0.8 92 0.5 CALM 0 0 0 0 - - 0.0
29/02:30am 2.2 0.4 1.0 92 0.5 CALM 0 0 0 0 - - 0.0
29/02:00am 2.5 0.7 1.2 91 0.5 CALM 0 0 0 0 - - 0.0
29/01:30am 2.8 0.6 0.9 87 0.7 W 2 4 1 2 - - 0.0
29/01:00am 3.3 1.0 0.7 83 1.0 WSW 2 4 1 2 - - 0.0
29/12:30am 5.8 3.3 1.3 73 1.8 WSW 4 7 2 4 - - 0.0
29/12:00am 6.8 4.0 1.9 71 2.0 WSW 6 7 3 4 - - 0.0
 
Date/Time
EST
Temp
°C
App
Temp
°C
Dew
Point
°C
Rel
Hum
%
Delta-T
°C
Wind Press
QNH
hPa
Press
MSL
hPa
Rain since
9am
mm
Dir  Spd
km/h
Gust
km/h
Spd
kts
Gust
kts
28/11:30pm 7.4 4.4 2.3 70 2.1 WSW 7 9 4 5 - - 0.0

Other Formats:

Comma delimited format used in spreadsheet applications
http://www.bom.gov.au/fwo/IDN60801/IDN60801.94760.axf

JavaScript Object Notation format (JSON) in row-major order
http://www.bom.gov.au/fwo/IDN60801/IDN60801.94760.json